sensor_id;sensor_type;location;lat;lon;timestamp;pressure;altitude;pressure_sealevel;temperature;humidity
18509;BME280;9383;50.928;12.116;2022-12-07T00:01:18;98718.16;;;1.69;100.00
18509;BME280;9383;50.928;12.116;2022-12-07T00:03:47;98710.31;;;1.67;100.00
18509;BME280;9383;50.928;12.116;2022-12-07T00:06:16;98710.31;;;1.63;100.00
18509;BME280;9383;50.928;12.116;2022-12-07T00:08:44;98703.34;;;1.62;100.00
18509;BME280;9383;50.928;12.116;2022-12-07T00:11:17;98704.22;;;1.61;100.00
18509;BME280;9383;50.928;12.116;2022-12-07T00:13:47;98700.78;;;1.56;100.00
18509;BME280;9383;50.928;12.116;2022-12-07T00:16:19;98695.56;;;1.51;100.00
18509;BME280;9383;50.928;12.116;2022-12-07T00:18:47;98696.41;;;1.48;100.00
18509;BME280;9383;50.928;12.116;2022-12-07T00:23:43;98688.59;;;1.40;100.00
18509;BME280;9383;50.928;12.116;2022-12-07T00:26:12;98684.28;;;1.36;100.00
18509;BME280;9383;50.928;12.116;2022-12-07T00:28:39;98678.19;;;1.34;100.00
18509;BME280;9383;50.928;12.116;2022-12-07T00:31:08;98673.81;;;1.32;100.00
18509;BME280;9383;50.928;12.116;2022-12-07T00:33:36;98678.19;;;1.28;100.00
18509;BME280;9383;50.928;12.116;2022-12-07T00:36:07;98671.22;;;1.24;100.00
18509;BME280;9383;50.928;12.116;2022-12-07T00:38:36;98677.31;;;1.20;100.00
18509;BME280;9383;50.928;12.116;2022-12-07T00:41:12;98677.34;;;1.15;100.00
18509;BME280;9383;50.928;12.116;2022-12-07T00:43:40;98678.22;;;1.12;100.00
18509;BME280;9383;50.928;12.116;2022-12-07T00:46:07;98672.09;;;1.09;100.00
18509;BME280;9383;50.928;12.116;2022-12-07T00:48:34;98672.97;;;1.03;100.00
18509;BME280;9383;50.928;12.116;2022-12-07T00:51:02;98672.97;;;0.98;100.00
18509;BME280;9383;50.928;12.116;2022-12-07T00:53:29;98666.91;;;0.93;100.00
18509;BME280;9383;50.928;12.116;2022-12-07T00:55:56;98666.03;;;0.87;100.00
18509;BME280;9383;50.928;12.116;2022-12-07T00:58:23;98660.84;;;0.83;100.00
18509;BME280;9383;50.928;12.116;2022-12-07T01:00:50;98670.38;;;0.80;100.00
18509;BME280;9383;50.928;12.116;2022-12-07T01:03:18;98664.28;;;0.75;100.00
18509;BME280;9383;50.928;12.116;2022-12-07T01:05:53;98662.56;;;0.70;100.00
18509;BME280;9383;50.928;12.116;2022-12-07T01:08:21;98660.81;;;0.65;100.00
18509;BME280;9383;50.928;12.116;2022-12-07T01:10:48;98654.72;;;0.60;100.00
18509;BME280;9383;50.928;12.116;2022-12-07T01:13:15;98649.50;;;0.56;100.00
18509;BME280;9383;50.928;12.116;2022-12-07T01:15:44;98645.16;;;0.54;100.00
18509;BME280;9383;50.928;12.116;2022-12-07T01:18:11;98646.91;;;0.50;100.00
18509;BME280;9383;50.928;12.116;2022-12-07T01:20:38;98646.00;;;0.47;100.00
18509;BME280;9383;50.928;12.116;2022-12-07T01:23:05;98640.81;;;0.44;100.00
18509;BME280;9383;50.928;12.116;2022-12-07T01:25:32;98650.34;;;0.40;100.00
18509;BME280;9383;50.928;12.116;2022-12-07T01:27:59;98649.47;;;0.36;100.00
18509;BME280;9383;50.928;12.116;2022-12-07T01:30:26;98646.88;;;0.33;100.00
18509;BME280;9383;50.928;12.116;2022-12-07T01:32:53;98642.50;;;0.31;100.00
18509;BME280;9383;50.928;12.116;2022-12-07T01:35:21;98643.41;;;0.28;100.00
18509;BME280;9383;50.928;12.116;2022-12-07T01:37:47;98646.00;;;0.23;100.00
18509;BME280;9383;50.928;12.116;2022-12-07T01:40:14;98641.63;;;0.21;100.00
18509;BME280;9383;50.928;12.116;2022-12-07T01:42:41;98640.75;;;0.19;100.00
18509;BME280;9383;50.928;12.116;2022-12-07T01:47:57;98651.16;;;0.12;100.00
18509;BME280;9383;50.928;12.116;2022-12-07T01:50:27;98654.63;;;0.08;100.00
18509;BME280;9383;50.928;12.116;2022-12-07T01:52:57;98645.94;;;0.06;100.00
18509;BME280;9383;50.928;12.116;2022-12-07T01:55:25;98649.41;;;0.02;100.00
18509;BME280;9383;50.928;12.116;2022-12-07T01:57:54;98648.56;;;0.00;100.00
18509;BME280;9383;50.928;12.116;2022-12-07T02:00:22;98644.19;;;-0.03;100.00
18509;BME280;9383;50.928;12.116;2022-12-07T02:05:33;98643.31;;;-0.09;100.00
18509;BME280;9383;50.928;12.116;2022-12-07T02:08:01;98642.41;;;-0.13;100.00
18509;BME280;9383;50.928;12.116;2022-12-07T02:10:31;98632.84;;;-0.16;100.00
18509;BME280;9383;50.928;12.116;2022-12-07T02:15:50;98617.19;;;-0.20;100.00
18509;BME280;9383;50.928;12.116;2022-12-07T02:21:39;98625.03;;;-0.25;100.00
18509;BME280;9383;50.928;12.116;2022-12-07T02:24:24;98625.00;;;-0.28;100.00
18509;BME280;9383;50.928;12.116;2022-12-07T02:35:05;98611.94;;;-0.39;100.00
18509;BME280;9383;50.928;12.116;2022-12-07T02:37:42;98606.72;;;-0.40;100.00
18509;BME280;9383;50.928;12.116;2022-12-07T02:40:35;98604.97;;;-0.43;100.00
18509;BME280;9383;50.928;12.116;2022-12-07T02:43:31;98603.22;;;-0.46;100.00
18509;BME280;9383;50.928;12.116;2022-12-07T02:46:11;98607.56;;;-0.48;100.00
18509;BME280;9383;50.928;12.116;2022-12-07T02:48:40;98604.09;;;-0.50;100.00
18509;BME280;9383;50.928;12.116;2022-12-07T02:51:08;98594.50;;;-0.51;100.00
18509;BME280;9383;50.928;12.116;2022-12-07T02:53:40;98601.47;;;-0.51;100.00
18509;BME280;9383;50.928;12.116;2022-12-07T02:56:28;98603.19;;;-0.53;100.00
18509;BME280;9383;50.928;12.116;2022-12-07T03:04:19;98597.09;;;-0.57;100.00
18509;BME280;9383;50.928;12.116;2022-12-07T03:06:58;98586.69;;;-0.57;100.00
18509;BME280;9383;50.928;12.116;2022-12-07T03:09:51;98590.16;;;-0.58;100.00
18509;BME280;9383;50.928;12.116;2022-12-07T03:12:25;98601.41;;;-0.61;100.00
18509;BME280;9383;50.928;12.116;2022-12-07T03:15:05;98592.75;;;-0.63;100.00
18509;BME280;9383;50.928;12.116;2022-12-07T03:17:37;98587.50;;;-0.64;100.00
18509;BME280;9383;50.928;12.116;2022-12-07T03:20:07;98588.38;;;-0.65;100.00
18509;BME280;9383;50.928;12.116;2022-12-07T03:22:39;98579.69;;;-0.67;100.00
18509;BME280;9383;50.928;12.116;2022-12-07T03:25:11;98574.50;;;-0.67;100.00
18509;BME280;9383;50.928;12.116;2022-12-07T03:27:49;98577.13;;;-0.69;100.00
18509;BME280;9383;50.928;12.116;2022-12-07T03:30:29;98571.03;;;-0.69;100.00
18509;BME280;9383;50.928;12.116;2022-12-07T03:33:06;98559.72;;;-0.72;100.00
18509;BME280;9383;50.928;12.116;2022-12-07T03:35:43;98555.41;;;-0.73;100.00
18509;BME280;9383;50.928;12.116;2022-12-07T03:38:33;98564.06;;;-0.74;100.00
18509;BME280;9383;50.928;12.116;2022-12-07T03:43:32;98564.94;;;-0.75;100.00
18509;BME280;9383;50.928;12.116;2022-12-07T03:48:36;98557.13;;;-0.73;100.00
18509;BME280;9383;50.928;12.116;2022-12-07T03:56:44;98556.28;;;-0.67;100.00
18509;BME280;9383;50.928;12.116;2022-12-07T03:59:13;98554.56;;;-0.64;100.00
18509;BME280;9383;50.928;12.116;2022-12-07T04:02:02;98550.25;;;-0.60;100.00
18509;BME280;9383;50.928;12.116;2022-12-07T04:04:30;98547.63;;;-0.59;100.00
18509;BME280;9383;50.928;12.116;2022-12-07T04:06:57;98550.25;;;-0.55;100.00
18509;BME280;9383;50.928;12.116;2022-12-07T04:09:24;98476.38;;;-0.92;100.00
18509;BME280;9383;50.928;12.116;2022-12-07T04:11:50;98554.59;;;-0.45;100.00
18509;BME280;9383;50.928;12.116;2022-12-07T04:14:17;98555.50;;;-0.41;100.00
18509;BME280;9383;50.928;12.116;2022-12-07T04:16:56;98545.06;;;-0.38;100.00
18509;BME280;9383;50.928;12.116;2022-12-07T04:19:31;98541.63;;;-0.34;100.00
18509;BME280;9383;50.928;12.116;2022-12-07T04:21:59;98539.91;;;-0.31;100.00
18509;BME280;9383;50.928;12.116;2022-12-07T04:24:26;98538.16;;;-0.27;100.00
18509;BME280;9383;50.928;12.116;2022-12-07T04:26:52;98546.88;;;-0.23;100.00
18509;BME280;9383;50.928;12.116;2022-12-07T04:29:19;98538.19;;;-0.21;100.00
18509;BME280;9383;50.928;12.116;2022-12-07T04:31:46;98539.94;;;-0.17;100.00
18509;BME280;9383;50.928;12.116;2022-12-07T04:34:13;98539.06;;;-0.14;100.00
18509;BME280;9383;50.928;12.116;2022-12-07T04:36:41;98528.66;;;-0.09;100.00
18509;BME280;9383;50.928;12.116;2022-12-07T04:39:13;98534.75;;;-0.06;100.00
18509;BME280;9383;50.928;12.116;2022-12-07T04:41:43;98527.78;;;-0.02;100.00
18509;BME280;9383;50.928;12.116;2022-12-07T04:44:09;98527.81;;;0.01;100.00
18509;BME280;9383;50.928;12.116;2022-12-07T04:46:38;98522.59;;;0.04;100.00
18509;BME280;9383;50.928;12.116;2022-12-07T04:49:05;98525.19;;;0.06;100.00
18509;BME280;9383;50.928;12.116;2022-12-07T04:51:31;98513.91;;;0.08;100.00
18509;BME280;9383;50.928;12.116;2022-12-07T04:53:58;98508.69;;;0.11;100.00
18509;BME280;9383;50.928;12.116;2022-12-07T04:56:25;98507.81;;;0.14;100.00
18509;BME280;9383;50.928;12.116;2022-12-07T04:58:53;98497.41;;;0.14;100.00
18509;BME280;9383;50.928;12.116;2022-12-07T05:01:21;98510.44;;;0.19;100.00
18509;BME280;9383;50.928;12.116;2022-12-07T05:03:49;98502.63;;;0.19;100.00
18509;BME280;9383;50.928;12.116;2022-12-07T05:06:15;98500.03;;;0.20;100.00
18509;BME280;9383;50.928;12.116;2022-12-07T05:08:42;98503.47;;;0.24;100.00
18509;BME280;9383;50.928;12.116;2022-12-07T05:11:10;98501.75;;;0.24;100.00
18509;BME280;9383;50.928;12.116;2022-12-07T05:13:57;98494.78;;;0.25;100.00
18509;BME280;9383;50.928;12.116;2022-12-07T05:16:24;98494.78;;;0.28;100.00
18509;BME280;9383;50.928;12.116;2022-12-07T05:18:50;98503.47;;;0.30;100.00
18509;BME280;9383;50.928;12.116;2022-12-07T05:21:17;98506.09;;;0.30;100.00
18509;BME280;9383;50.928;12.116;2022-12-07T05:23:46;98502.63;;;0.33;100.00
18509;BME280;9383;50.928;12.116;2022-12-07T05:26:13;98500.00;;;0.33;100.00
18509;BME280;9383;50.928;12.116;2022-12-07T05:28:40;98500.84;;;0.36;100.00
18509;BME280;9383;50.928;12.116;2022-12-07T05:31:07;98494.78;;;0.39;100.00
18509;BME280;9383;50.928;12.116;2022-12-07T05:33:34;98495.63;;;0.41;100.00
18509;BME280;9383;50.928;12.116;2022-12-07T05:36:00;98488.69;;;0.41;100.00
18509;BME280;9383;50.928;12.116;2022-12-07T05:38:33;98491.31;;;0.41;100.00
18509;BME280;9383;50.928;12.116;2022-12-07T05:41:04;98489.56;;;0.45;100.00
18509;BME280;9383;50.928;12.116;2022-12-07T05:43:31;98491.31;;;0.46;100.00
18509;BME280;9383;50.928;12.116;2022-12-07T05:45:58;98493.00;;;0.49;100.00
18509;BME280;9383;50.928;12.116;2022-12-07T05:48:25;98491.31;;;0.51;100.00
18509;BME280;9383;50.928;12.116;2022-12-07T05:50:53;98490.41;;;0.50;100.00
18509;BME280;9383;50.928;12.116;2022-12-07T05:53:19;98493.91;;;0.51;100.00
18509;BME280;9383;50.928;12.116;2022-12-07T05:55:46;98498.25;;;0.52;100.00
18509;BME280;9383;50.928;12.116;2022-12-07T05:58:12;98493.00;;;0.56;100.00
18509;BME280;9383;50.928;12.116;2022-12-07T06:00:59;98427.91;;;0.18;100.00
18509;BME280;9383;50.928;12.116;2022-12-07T06:03:25;98494.75;;;0.59;100.00
18509;BME280;9383;50.928;12.116;2022-12-07T06:05:52;98493.88;;;0.63;100.00
18509;BME280;9383;50.928;12.116;2022-12-07T06:08:19;98498.22;;;0.64;100.00
18509;BME280;9383;50.928;12.116;2022-12-07T06:10:47;98495.59;;;0.66;100.00
18509;BME280;9383;50.928;12.116;2022-12-07T06:13:34;98494.72;;;0.67;100.00
18509;BME280;9383;50.928;12.116;2022-12-07T06:16:00;98492.13;;;0.68;100.00
18509;BME280;9383;50.928;12.116;2022-12-07T06:18:27;98492.97;;;0.70;100.00
18509;BME280;9383;50.928;12.116;2022-12-07T06:20:53;98499.94;;;0.72;100.00
18509;BME280;9383;50.928;12.116;2022-12-07T06:23:20;98499.91;;;0.75;100.00
18509;BME280;9383;50.928;12.116;2022-12-07T06:25:47;98500.81;;;0.77;100.00
18509;BME280;9383;50.928;12.116;2022-12-07T06:28:16;98501.66;;;0.76;100.00
18509;BME280;9383;50.928;12.116;2022-12-07T06:30:46;98494.72;;;0.78;100.00
18509;BME280;9383;50.928;12.116;2022-12-07T06:33:15;98500.78;;;0.81;100.00
18509;BME280;9383;50.928;12.116;2022-12-07T06:35:42;98498.16;;;0.83;100.00
18509;BME280;9383;50.928;12.116;2022-12-07T06:38:08;98498.16;;;0.86;100.00
18509;BME280;9383;50.928;12.116;2022-12-07T06:40:37;98501.63;;;0.88;100.00
18509;BME280;9383;50.928;12.116;2022-12-07T06:43:24;98503.38;;;0.86;100.00
18509;BME280;9383;50.928;12.116;2022-12-07T06:45:51;98506.88;;;0.87;100.00
18509;BME280;9383;50.928;12.116;2022-12-07T06:48:18;98497.28;;;0.89;100.00
18509;BME280;9383;50.928;12.116;2022-12-07T06:51:15;98505.13;;;0.90;100.00
18509;BME280;9383;50.928;12.116;2022-12-07T06:53:41;98509.44;;;0.93;100.00
18509;BME280;9383;50.928;12.116;2022-12-07T06:56:16;98513.78;;;0.95;100.00
18509;BME280;9383;50.928;12.116;2022-12-07T06:58:43;98514.66;;;0.97;100.00
18509;BME280;9383;50.928;12.116;2022-12-07T07:01:14;98517.25;;;0.97;100.00
18509;BME280;9383;50.928;12.116;2022-12-07T07:03:41;98510.28;;;1.00;100.00
18509;BME280;9383;50.928;12.116;2022-12-07T07:06:08;98517.25;;;1.01;100.00
18509;BME280;9383;50.928;12.116;2022-12-07T07:08:36;98518.13;;;1.00;100.00
18509;BME280;9383;50.928;12.116;2022-12-07T07:11:03;98523.34;;;1.03;100.00
18509;BME280;9383;50.928;12.116;2022-12-07T07:13:30;98521.59;;;1.05;100.00
18509;BME280;9383;50.928;12.116;2022-12-07T07:15:58;98519.84;;;1.07;100.00
18509;BME280;9383;50.928;12.116;2022-12-07T07:18:25;98525.06;;;1.08;100.00
18509;BME280;9383;50.928;12.116;2022-12-07T07:20:52;98512.88;;;1.07;100.00
18509;BME280;9383;50.928;12.116;2022-12-07T07:23:20;98516.38;;;1.09;100.00
18509;BME280;9383;50.928;12.116;2022-12-07T07:25:48;98516.34;;;1.11;100.00
18509;BME280;9383;50.928;12.116;2022-12-07T07:28:15;98524.16;;;1.11;100.00
18509;BME280;9383;50.928;12.116;2022-12-07T07:30:43;98526.78;;;1.12;100.00
18509;BME280;9383;50.928;12.116;2022-12-07T07:33:10;98526.78;;;1.12;100.00
18509;BME280;9383;50.928;12.116;2022-12-07T07:35:37;98524.19;;;1.12;100.00
18509;BME280;9383;50.928;12.116;2022-12-07T07:38:07;98519.84;;;1.11;100.00
18509;BME280;9383;50.928;12.116;2022-12-07T07:40:36;98520.69;;;1.12;100.00
18509;BME280;9383;50.928;12.116;2022-12-07T07:43:03;98525.91;;;1.12;100.00
18509;BME280;9383;50.928;12.116;2022-12-07T07:45:30;98525.03;;;1.13;100.00
18509;BME280;9383;50.928;12.116;2022-12-07T07:47:56;98525.91;;;1.14;100.00
18509;BME280;9383;50.928;12.116;2022-12-07T07:50:23;98528.53;;;1.14;100.00
18509;BME280;9383;50.928;12.116;2022-12-07T07:52:50;98530.25;;;1.13;100.00
18509;BME280;9383;50.928;12.116;2022-12-07T07:55:18;98525.03;;;1.15;100.00
18509;BME280;9383;50.928;12.116;2022-12-07T07:57:44;98527.66;;;1.16;100.00
18509;BME280;9383;50.928;12.116;2022-12-07T08:00:17;98523.25;;;1.20;100.00
18509;BME280;9383;50.928;12.116;2022-12-07T08:02:44;98525.00;;;1.24;100.00
18509;BME280;9383;50.928;12.116;2022-12-07T08:05:12;98530.19;;;1.30;100.00
18509;BME280;9383;50.928;12.116;2022-12-07T08:07:40;98538.00;;;1.38;100.00
18509;BME280;9383;50.928;12.116;2022-12-07T08:10:08;98535.38;;;1.39;100.00
18509;BME280;9383;50.928;12.116;2022-12-07T08:12:41;98527.53;;;1.44;100.00
18509;BME280;9383;50.928;12.116;2022-12-07T08:15:28;98530.97;;;1.49;100.00
18509;BME280;9383;50.928;12.116;2022-12-07T08:17:55;98531.88;;;1.50;100.00
18509;BME280;9383;50.928;12.116;2022-12-07T08:20:22;98528.38;;;1.51;100.00
18509;BME280;9383;50.928;12.116;2022-12-07T08:22:49;98521.38;;;1.53;100.00
18509;BME280;9383;50.928;12.116;2022-12-07T08:25:16;98526.63;;;1.54;100.00
18509;BME280;9383;50.928;12.116;2022-12-07T08:27:44;98518.72;;;1.61;100.00
18509;BME280;9383;50.928;12.116;2022-12-07T08:30:12;98521.31;;;1.67;100.00
18509;BME280;9383;50.928;12.116;2022-12-07T08:32:40;98523.00;;;1.76;100.00
18509;BME280;9383;50.928;12.116;2022-12-07T08:35:08;98523.81;;;1.86;100.00
18509;BME280;9383;50.928;12.116;2022-12-07T08:37:36;98523.72;;;1.98;100.00
18509;BME280;9383;50.928;12.116;2022-12-07T08:40:04;98521.94;;;2.06;100.00
18509;BME280;9383;50.928;12.116;2022-12-07T08:42:31;98515.75;;;2.15;100.00
18509;BME280;9383;50.928;12.116;2022-12-07T08:45:12;98531.41;;;2.21;100.00
18509;BME280;9383;50.928;12.116;2022-12-07T08:47:49;98526.13;;;2.26;100.00
18509;BME280;9383;50.928;12.116;2022-12-07T08:50:18;98524.31;;;2.36;100.00
18509;BME280;9383;50.928;12.116;2022-12-07T08:52:47;98524.25;;;2.44;100.00
18509;BME280;9383;50.928;12.116;2022-12-07T08:55:15;98522.44;;;2.50;100.00
18509;BME280;9383;50.928;12.116;2022-12-07T08:57:41;98531.16;;;2.52;100.00
18509;BME280;9383;50.928;12.116;2022-12-07T09:00:10;98525.88;;;2.56;100.00
18509;BME280;9383;50.928;12.116;2022-12-07T09:02:38;98525.81;;;2.65;100.00
18509;BME280;9383;50.928;12.116;2022-12-07T09:05:05;98524.88;;;2.71;100.00
18509;BME280;9383;50.928;12.116;2022-12-07T09:07:34;98530.91;;;2.79;100.00
18509;BME280;9383;50.928;12.116;2022-12-07T09:10:01;98526.53;;;2.81;100.00
18509;BME280;9383;50.928;12.116;2022-12-07T09:12:29;98534.34;;;2.86;100.00
18509;BME280;9383;50.928;12.116;2022-12-07T09:14:55;98535.13;;;2.92;100.00
18509;BME280;9383;50.928;12.116;2022-12-07T09:17:22;98529.91;;;2.92;100.00
18509;BME280;9383;50.928;12.116;2022-12-07T09:19:49;98538.59;;;2.94;100.00
18509;BME280;9383;50.928;12.116;2022-12-07T09:22:16;98533.31;;;2.99;100.00
18509;BME280;9383;50.928;12.116;2022-12-07T09:24:43;98539.34;;;3.06;100.00
18509;BME280;9383;50.928;12.116;2022-12-07T09:27:11;98534.97;;;3.08;100.00
18509;BME280;9383;50.928;12.116;2022-12-07T09:29:38;98535.91;;;3.04;100.00
18509;BME280;9383;50.928;12.116;2022-12-07T09:32:05;98540.16;;;3.09;100.00
18509;BME280;9383;50.928;12.116;2022-12-07T09:34:32;98545.44;;;3.08;100.00
18509;BME280;9383;50.928;12.116;2022-12-07T09:37:01;98536.66;;;3.12;100.00
18509;BME280;9383;50.928;12.116;2022-12-07T09:39:29;98538.38;;;3.13;100.00
18509;BME280;9383;50.928;12.116;2022-12-07T09:41:58;98533.97;;;3.18;100.00
18509;BME280;9383;50.928;12.116;2022-12-07T09:44:26;98530.44;;;3.21;100.00
18509;BME280;9383;50.928;12.116;2022-12-07T09:46:55;98530.38;;;3.27;100.00
18509;BME280;9383;50.928;12.116;2022-12-07T09:49:25;98527.72;;;3.32;100.00
18509;BME280;9383;50.928;12.116;2022-12-07T09:54:29;98523.25;;;3.37;100.00
18509;BME280;9383;50.928;12.116;2022-12-07T09:56:58;98517.97;;;3.42;100.00
18509;BME280;9383;50.928;12.116;2022-12-07T09:59:24;98518.75;;;3.48;100.00
18509;BME280;9383;50.928;12.116;2022-12-07T10:01:52;98520.53;;;3.45;100.00
18509;BME280;9383;50.928;12.116;2022-12-07T10:04:24;98515.34;;;3.42;100.00
18509;BME280;9383;50.928;12.116;2022-12-07T10:06:52;98510.06;;;3.46;100.00
18509;BME280;9383;50.928;12.116;2022-12-07T10:09:22;98505.59;;;3.51;100.00
18509;BME280;9383;50.928;12.116;2022-12-07T10:14:33;98497.78;;;3.48;100.00
18509;BME280;9383;50.928;12.116;2022-12-07T10:17:00;98504.72;;;3.52;100.00
18509;BME280;9383;50.928;12.116;2022-12-07T10:19:32;98507.31;;;3.56;100.00
18509;BME280;9383;50.928;12.116;2022-12-07T10:22:16;98501.19;;;3.55;100.00
18509;BME280;9383;50.928;12.116;2022-12-07T10:24:46;98497.69;;;3.56;100.00
18509;BME280;9383;50.928;12.116;2022-12-07T10:27:26;98499.47;;;3.56;100.00
18509;BME280;9383;50.928;12.116;2022-12-07T10:29:53;98502.06;;;3.56;100.00
18509;BME280;9383;50.928;12.116;2022-12-07T10:34:46;98495.91;;;3.60;100.00
18509;BME280;9383;50.928;12.116;2022-12-07T10:39:51;98494.94;;;3.65;100.00
18509;BME280;9383;50.928;12.116;2022-12-07T10:42:24;98492.25;;;3.70;100.00
18509;BME280;9383;50.928;12.116;2022-12-07T10:45:15;98488.75;;;3.71;100.00
18509;BME280;9383;50.928;12.116;2022-12-07T10:51:15;98484.22;;;3.83;100.00
18509;BME280;9383;50.928;12.116;2022-12-07T11:02:23;98473.44;;;4.01;100.00
18509;BME280;9383;50.928;12.116;2022-12-07T11:10:33;98476.88;;;4.03;100.00
18509;BME280;9383;50.928;12.116;2022-12-07T11:21:46;98478.41;;;4.17;100.00
18509;BME280;9383;50.928;12.116;2022-12-07T11:24:17;98475.84;;;4.14;100.00
18509;BME280;9383;50.928;12.116;2022-12-07T11:37:36;98462.66;;;4.18;100.00
18509;BME280;9383;50.928;12.116;2022-12-07T11:40:40;98471.34;;;4.22;100.00
18509;BME280;9383;50.928;12.116;2022-12-07T11:43:26;98466.94;;;4.24;100.00
18509;BME280;9383;50.928;12.116;2022-12-07T11:46:12;98460.72;;;4.30;100.00
18509;BME280;9383;50.928;12.116;2022-12-07T11:48:52;98466.84;;;4.30;100.00
18509;BME280;9383;50.928;12.116;2022-12-07T11:51:26;98456.25;;;4.35;100.00
18509;BME280;9383;50.928;12.116;2022-12-07T11:54:03;98447.47;;;4.36;100.00
18509;BME280;9383;50.928;12.116;2022-12-07T11:56:35;98453.72;;;4.30;100.00
18509;BME280;9383;50.928;12.116;2022-12-07T11:59:31;98451.97;;;4.29;100.00
18509;BME280;9383;50.928;12.116;2022-12-07T12:02:13;98443.19;;;4.33;100.00
18509;BME280;9383;50.928;12.116;2022-12-07T12:04:53;98448.38;;;4.36;100.00
18509;BME280;9383;50.928;12.116;2022-12-07T12:07:27;98447.47;;;4.38;100.00
18509;BME280;9383;50.928;12.116;2022-12-07T12:10:13;98432.59;;;4.38;100.00
18509;BME280;9383;50.928;12.116;2022-12-07T12:13:03;98441.31;;;4.40;100.00
18509;BME280;9383;50.928;12.116;2022-12-07T12:15:45;98436.91;;;4.41;100.00
18509;BME280;9383;50.928;12.116;2022-12-07T12:21:10;98433.34;;;4.45;99.99
18509;BME280;9383;50.928;12.116;2022-12-07T12:23:48;98429.84;;;4.46;100.00
18509;BME280;9383;50.928;12.116;2022-12-07T12:26:29;98428.03;;;4.49;100.00
18509;BME280;9383;50.928;12.116;2022-12-07T12:29:03;98434.09;;;4.52;99.94
18509;BME280;9383;50.928;12.116;2022-12-07T12:34:00;98410.50;;;4.50;99.74
18509;BME280;9383;50.928;12.116;2022-12-07T12:47:03;98426.09;;;4.59;97.37
18509;BME280;9383;50.928;12.116;2022-12-07T12:49:43;98424.28;;;4.61;97.77
18509;BME280;9383;50.928;12.116;2022-12-07T12:57:37;98420.66;;;4.69;100.00
18509;BME280;9383;50.928;12.116;2022-12-07T13:00:22;98409.19;;;4.73;100.00
18509;BME280;9383;50.928;12.116;2022-12-07T13:02:54;98410.91;;;4.75;100.00
18509;BME280;9383;50.928;12.116;2022-12-07T13:05:28;98417.06;;;4.73;97.17
18509;BME280;9383;50.928;12.116;2022-12-07T13:15:49;98409.97;;;4.78;96.77
18509;BME280;9383;50.928;12.116;2022-12-07T13:26:21;98412.97;;;5.44;100.00
18509;BME280;9383;50.928;12.116;2022-12-07T13:28:51;98410.13;;;5.90;100.00
18509;BME280;9383;50.928;12.116;2022-12-07T13:31:34;98402.72;;;6.41;100.00
18509;BME280;9383;50.928;12.116;2022-12-07T13:34:03;98399.91;;;6.80;100.00
18509;BME280;9383;50.928;12.116;2022-12-07T13:36:36;98390.72;;;6.94;100.00
18509;BME280;9383;50.928;12.116;2022-12-07T13:39:32;98402.41;;;6.85;89.50
18509;BME280;9383;50.928;12.116;2022-12-07T13:42:06;98394.84;;;6.72;86.87
18509;BME280;9383;50.928;12.116;2022-12-07T13:44:38;98402.97;;;6.65;88.42
18509;BME280;9383;50.928;12.116;2022-12-07T13:47:14;98405.13;;;6.50;88.55
18509;BME280;9383;50.928;12.116;2022-12-07T13:49:51;98409.03;;;6.35;87.28
18509;BME280;9383;50.928;12.116;2022-12-07T13:52:25;98411.25;;;6.17;85.54
18509;BME280;9383;50.928;12.116;2022-12-07T13:55:01;98417.09;;;5.93;83.53
18509;BME280;9383;50.928;12.116;2022-12-07T13:57:30;98426.28;;;5.74;84.61
18509;BME280;9383;50.928;12.116;2022-12-07T13:59:58;98416.03;;;5.63;85.55
18509;BME280;9383;50.928;12.116;2022-12-07T14:02:32;98417.16;;;5.52;86.41
18509;BME280;9383;50.928;12.116;2022-12-07T14:05:26;98418.22;;;5.44;87.93
18509;BME280;9383;50.928;12.116;2022-12-07T14:10:31;98414.19;;;5.28;89.24
18509;BME280;9383;50.928;12.116;2022-12-07T14:13:01;98408.44;;;5.10;88.36
18509;BME280;9383;50.928;12.116;2022-12-07T14:15:31;98409.44;;;5.04;89.62
18509;BME280;9383;50.928;12.116;2022-12-07T14:18:00;98411.25;;;5.01;89.97
18509;BME280;9383;50.928;12.116;2022-12-07T14:20:47;98412.22;;;4.97;91.55
18509;BME280;9383;50.928;12.116;2022-12-07T14:23:25;98410.53;;;4.92;91.75
18509;BME280;9383;50.928;12.116;2022-12-07T14:25:53;98405.44;;;4.86;92.25
18509;BME280;9383;50.928;12.116;2022-12-07T14:28:33;98405.59;;;4.78;92.13
18509;BME280;9383;50.928;12.116;2022-12-07T14:31:02;98390.81;;;4.74;92.71
18509;BME280;9383;50.928;12.116;2022-12-07T14:33:29;98406.75;;;4.63;92.58
18509;BME280;9383;50.928;12.116;2022-12-07T14:35:56;98404.28;;;4.56;91.58
18509;BME280;9383;50.928;12.116;2022-12-07T14:38:24;98404.41;;;4.49;92.10
18509;BME280;9383;50.928;12.116;2022-12-07T14:40:52;98403.66;;;4.43;92.11
18509;BME280;9383;50.928;12.116;2022-12-07T14:43:20;98399.47;;;4.32;92.82
18509;BME280;9383;50.928;12.116;2022-12-07T14:45:47;98410.94;;;4.25;92.86
18509;BME280;9383;50.928;12.116;2022-12-07T14:48:15;98404.03;;;4.21;93.22
18509;BME280;9383;50.928;12.116;2022-12-07T14:50:51;98403.41;;;4.06;93.03
18509;BME280;9383;50.928;12.116;2022-12-07T14:53:25;98399.16;;;4.01;93.35
18509;BME280;9383;50.928;12.116;2022-12-07T14:55:53;98394.81;;;3.98;94.17
18509;BME280;9383;50.928;12.116;2022-12-07T14:58:20;98404.53;;;3.93;94.83
18509;BME280;9383;50.928;12.116;2022-12-07T15:00:47;98399.38;;;3.87;95.02
18509;BME280;9383;50.928;12.116;2022-12-07T15:03:14;98405.63;;;3.79;95.12
18509;BME280;9383;50.928;12.116;2022-12-07T15:05:43;98406.53;;;3.75;95.48
18509;BME280;9383;50.928;12.116;2022-12-07T15:08:12;98408.34;;;3.72;96.49
18509;BME280;9383;50.928;12.116;2022-12-07T15:10:39;98405.81;;;3.65;96.38
18509;BME280;9383;50.928;12.116;2022-12-07T15:13:06;98406.78;;;3.61;96.26
18509;BME280;9383;50.928;12.116;2022-12-07T15:15:53;98397.47;;;3.40;96.27
18509;BME280;9383;50.928;12.116;2022-12-07T15:18:22;98410.53;;;3.43;96.85
18509;BME280;9383;50.928;12.116;2022-12-07T15:20:50;98409.72;;;3.40;96.80
18509;BME280;9383;50.928;12.116;2022-12-07T15:23:17;98401.91;;;3.35;97.52
18509;BME280;9383;50.928;12.116;2022-12-07T15:25:46;98402.84;;;3.31;97.58